createdAt,value
2023-11-22T00:01:57.763Z,4.10
2023-11-22T00:04:24.647Z,4.10
2023-11-22T00:06:51.591Z,4.10
2023-11-22T00:09:23.394Z,4.10
2023-11-22T00:11:51.019Z,4.10
2023-11-22T00:14:17.906Z,4.10
2023-11-22T00:16:44.733Z,4.10
2023-11-22T00:19:11.578Z,4.10
2023-11-22T00:21:38.353Z,4.10
2023-11-22T00:24:06.049Z,4.10
2023-11-22T00:26:33.604Z,4.10
2023-11-22T00:29:00.656Z,4.10
2023-11-22T00:31:28.374Z,4.20
2023-11-22T00:33:55.178Z,4.20
2023-11-22T00:36:23.712Z,4.20
2023-11-22T00:38:50.535Z,4.20
2023-11-22T00:41:17.461Z,4.30
2023-11-22T00:43:44.547Z,4.30
2023-11-22T00:46:11.371Z,4.30
2023-11-22T00:48:39.180Z,4.20
2023-11-22T00:51:09.765Z,4.10
2023-11-22T00:53:39.776Z,4.10
2023-11-22T00:56:07.535Z,4.00
2023-11-22T00:58:34.824Z,3.90
2023-11-22T01:01:01.759Z,3.90
2023-11-22T01:03:28.725Z,3.80
2023-11-22T01:05:55.986Z,3.80
2023-11-22T01:08:23.123Z,3.80
2023-11-22T01:10:50.293Z,3.80
2023-11-22T01:13:17.457Z,3.80
2023-11-22T01:15:45.608Z,3.70
2023-11-22T01:18:12.544Z,3.70
2023-11-22T01:20:39.682Z,3.70
2023-11-22T01:23:06.810Z,3.70
2023-11-22T01:25:33.953Z,3.70
2023-11-22T01:28:01.730Z,3.70
2023-11-22T01:30:29.857Z,3.70
2023-11-22T01:32:57.023Z,3.70
2023-11-22T01:35:24.376Z,3.70
2023-11-22T01:37:51.578Z,3.70
2023-11-22T01:40:20.701Z,3.70
2023-11-22T01:42:47.959Z,3.70
2023-11-22T01:45:15.199Z,3.70
2023-11-22T01:47:43.371Z,3.70
2023-11-22T01:50:10.827Z,3.70
2023-11-22T01:52:38.546Z,3.70
2023-11-22T01:55:06.577Z,3.70
2023-11-22T01:57:35.321Z,3.70
2023-11-22T02:00:05.286Z,3.70
2023-11-22T02:02:40.064Z,3.70
2023-11-22T02:05:07.380Z,3.60
2023-11-22T02:07:34.247Z,3.60
2023-11-22T02:10:01.402Z,3.60
2023-11-22T02:12:28.182Z,3.50
2023-11-22T02:14:55.066Z,3.50
2023-11-22T02:17:23.676Z,3.50
2023-11-22T02:19:50.428Z,3.60
2023-11-22T02:22:17.222Z,3.60
2023-11-22T02:24:46.156Z,3.60
2023-11-22T02:27:13.173Z,3.50
2023-11-22T02:29:41.400Z,3.50
2023-11-22T02:32:09.244Z,3.50
2023-11-22T02:34:37.640Z,3.40
2023-11-22T02:37:06.849Z,3.40
2023-11-22T02:40:05.758Z,3.40
2023-11-22T02:42:32.642Z,3.40
2023-11-22T02:44:59.433Z,3.40
2023-11-22T02:47:26.691Z,3.40
2023-11-22T02:49:55.480Z,3.40
2023-11-22T02:52:25.256Z,3.40
2023-11-22T02:54:52.044Z,3.40
2023-11-22T02:57:18.920Z,3.30
2023-11-22T02:59:53.261Z,3.30
2023-11-22T03:02:20.097Z,3.40
2023-11-22T03:04:47.009Z,3.40
2023-11-22T03:07:13.901Z,3.40
2023-11-22T03:09:42.194Z,3.40
2023-11-22T03:12:10.057Z,3.40
2023-11-22T03:14:37.215Z,3.20
2023-11-22T03:17:04.697Z,3.20
2023-11-22T03:19:31.507Z,3.20
2023-11-22T03:21:58.325Z,3.10
2023-11-22T03:24:25.134Z,3.10
2023-11-22T03:26:53.710Z,3.10
2023-11-22T03:29:20.453Z,3.00
2023-11-22T03:31:48.080Z,3.00
2023-11-22T03:34:16.147Z,3.00
2023-11-22T03:36:43.214Z,2.90
2023-11-22T03:39:11.537Z,2.90
2023-11-22T03:41:38.430Z,2.90
2023-11-22T03:44:09.752Z,2.90
2023-11-22T03:46:37.847Z,2.90
2023-11-22T03:49:05.571Z,2.80
2023-11-22T03:51:32.349Z,2.90
2023-11-22T03:53:59.242Z,2.80
2023-11-22T03:56:27.129Z,2.80
2023-11-22T03:58:53.881Z,2.80
2023-11-22T04:01:21.567Z,2.80
2023-11-22T04:03:49.695Z,2.80
2023-11-22T04:06:17.848Z,2.80
2023-11-22T04:11:32.231Z,2.80
2023-11-22T04:13:59.241Z,2.70
2023-11-22T04:16:26.582Z,2.70
2023-11-22T04:18:53.668Z,2.70
2023-11-22T04:21:21.026Z,2.70
2023-11-22T04:23:49.493Z,2.70
2023-11-22T04:26:17.093Z,2.70
2023-11-22T04:28:44.029Z,2.60
2023-11-22T04:31:10.837Z,2.60
2023-11-22T04:33:38.932Z,2.70
2023-11-22T04:36:06.474Z,2.70
2023-11-22T04:38:35.222Z,2.60
2023-11-22T04:41:02.397Z,2.60
2023-11-22T04:43:29.448Z,2.60
2023-11-22T04:45:59.840Z,2.50
2023-11-22T04:48:26.808Z,2.50
2023-11-22T04:50:54.005Z,2.50
2023-11-22T04:53:20.865Z,2.50
2023-11-22T04:55:47.719Z,2.60
2023-11-22T04:58:14.691Z,2.60
2023-11-22T05:00:41.486Z,2.60
2023-11-22T05:03:09.129Z,2.60
2023-11-22T05:05:36.064Z,2.50
2023-11-22T05:08:03.822Z,2.60
2023-11-22T05:10:30.774Z,2.60
2023-11-22T05:13:00.528Z,2.50
2023-11-22T05:15:30.429Z,2.50
2023-11-22T05:17:57.430Z,2.50
2023-11-22T05:20:24.507Z,2.40
2023-11-22T05:22:51.367Z,2.40
2023-11-22T05:25:18.482Z,2.40
2023-11-22T05:27:45.323Z,2.40
2023-11-22T05:30:12.592Z,2.40
2023-11-22T05:32:39.597Z,2.30
2023-11-22T05:35:10.897Z,2.30
2023-11-22T05:37:38.265Z,2.30
2023-11-22T05:40:06.379Z,2.20
2023-11-22T05:42:33.220Z,2.20
2023-11-22T05:45:00.115Z,2.20
2023-11-22T05:47:26.972Z,2.20
2023-11-22T05:49:53.892Z,2.20
2023-11-22T05:52:21.665Z,2.20
2023-11-22T05:54:49.055Z,2.20
2023-11-22T05:57:16.465Z,2.20
2023-11-22T05:59:43.341Z,2.10
2023-11-22T06:02:10.266Z,2.10
2023-11-22T06:04:39.309Z,2.10
2023-11-22T06:07:06.455Z,2.10
2023-11-22T06:09:33.293Z,2.10
2023-11-22T06:12:00.077Z,2.10
2023-11-22T06:14:27.208Z,2.10
2023-11-22T06:16:54.054Z,2.00
2023-11-22T06:19:21.032Z,2.00
2023-11-22T06:21:47.915Z,2.00
2023-11-22T06:24:17.381Z,2.00
2023-11-22T06:26:47.266Z,2.00
2023-11-22T06:29:15.721Z,2.00
2023-11-22T06:31:42.835Z,2.00
2023-11-22T06:34:11.333Z,2.00
2023-11-22T06:36:38.983Z,2.00
2023-11-22T06:39:07.005Z,2.00
2023-11-22T06:41:33.965Z,2.00
2023-11-22T06:44:00.793Z,2.00
2023-11-22T06:46:27.630Z,2.00
2023-11-22T06:48:54.715Z,2.00
2023-11-22T06:51:22.447Z,2.00
2023-11-22T06:53:49.333Z,2.00
2023-11-22T06:56:16.156Z,2.00
2023-11-22T06:58:43.238Z,2.00
2023-11-22T07:01:11.866Z,2.00
2023-11-22T07:03:39.655Z,2.00
2023-11-22T07:06:06.606Z,2.00
2023-11-22T07:08:33.389Z,2.00
2023-11-22T07:11:00.227Z,2.10
2023-11-22T07:13:27.799Z,2.10
2023-11-22T07:15:55.297Z,2.10
2023-11-22T07:18:25.258Z,2.10
2023-11-22T07:20:54.558Z,2.10
2023-11-22T07:23:23.792Z,2.10
2023-11-22T07:25:50.632Z,2.10
2023-11-22T07:28:17.389Z,2.00
2023-11-22T07:30:44.574Z,2.00
2023-11-22T07:33:12.254Z,2.00
2023-11-22T07:35:40.297Z,2.00
2023-11-22T07:38:09.373Z,2.00
2023-11-22T07:40:36.331Z,2.00
2023-11-22T07:43:05.899Z,1.90
2023-11-22T07:45:33.030Z,2.00
2023-11-22T07:48:04.453Z,2.00
2023-11-22T07:50:31.585Z,2.00
2023-11-22T07:52:58.493Z,1.90
2023-11-22T07:55:25.684Z,1.90
2023-11-22T07:57:52.653Z,1.90
2023-11-22T08:00:20.530Z,1.90
2023-11-22T08:02:48.023Z,1.90
2023-11-22T08:05:16.611Z,1.90
2023-11-22T08:07:46.572Z,1.90
2023-11-22T08:10:19.655Z,2.00
2023-11-22T08:12:47.957Z,2.00
2023-11-22T08:15:16.717Z,2.00
2023-11-22T08:17:46.556Z,2.00
2023-11-22T08:20:15.803Z,2.00
2023-11-22T08:22:42.957Z,2.10
2023-11-22T08:25:13.621Z,2.10
2023-11-22T08:27:43.622Z,2.20
2023-11-22T08:30:17.408Z,2.20
2023-11-22T08:32:48.700Z,2.30
2023-11-22T08:35:16.688Z,2.50
2023-11-22T08:37:44.550Z,2.60
2023-11-22T08:40:23.934Z,2.60
2023-11-22T08:42:51.198Z,2.70
2023-11-22T08:45:18.294Z,2.70
2023-11-22T08:47:46.428Z,2.70
2023-11-22T08:50:13.600Z,2.80
2023-11-22T08:52:42.941Z,3.00
2023-11-22T08:55:09.903Z,3.10
2023-11-22T08:57:41.902Z,3.10
2023-11-22T09:00:12.511Z,3.10
2023-11-22T09:02:40.606Z,3.10
2023-11-22T09:05:13.861Z,3.20
2023-11-22T09:07:41.218Z,3.20
2023-11-22T09:10:12.247Z,3.20
2023-11-22T09:12:43.100Z,3.20
2023-11-22T09:15:13.549Z,3.20
2023-11-22T09:17:45.639Z,3.20
2023-11-22T09:20:14.076Z,3.30
2023-11-22T09:22:49.884Z,3.20
2023-11-22T09:25:22.873Z,3.30
2023-11-22T09:28:00.035Z,3.30
2023-11-22T09:30:44.252Z,3.40
2023-11-22T09:33:16.960Z,3.40
2023-11-22T09:35:46.410Z,3.40
2023-11-22T09:38:13.743Z,3.40
2023-11-22T09:40:45.248Z,3.40
2023-11-22T09:43:13.567Z,3.50
2023-11-22T09:45:41.056Z,3.60
2023-11-22T09:48:18.794Z,3.70
2023-11-22T09:51:22.346Z,3.80
2023-11-22T09:54:15.137Z,4.00
2023-11-22T09:56:42.741Z,4.30
2023-11-22T09:59:14.871Z,4.70
2023-11-22T10:01:41.874Z,5.00
2023-11-22T10:04:08.901Z,5.10
2023-11-22T10:06:36.795Z,5.30
2023-11-22T10:09:08.746Z,5.70
2023-11-22T10:11:39.650Z,6.30
2023-11-22T10:14:06.574Z,7.10
2023-11-22T10:16:33.517Z,7.60
2023-11-22T10:19:00.581Z,8.00
2023-11-22T10:21:31.633Z,8.30
2023-11-22T10:24:03.312Z,8.80
2023-11-22T10:26:30.402Z,9.20
2023-11-22T10:28:58.661Z,9.50
2023-11-22T10:31:26.432Z,9.30
2023-11-22T10:33:55.110Z,8.90
2023-11-22T10:36:23.676Z,8.50
2023-11-22T10:38:52.333Z,7.80
2023-11-22T10:41:21.365Z,7.30
2023-11-22T10:43:48.569Z,7.00
2023-11-22T10:46:18.436Z,7.00
2023-11-22T10:48:46.012Z,6.80
2023-11-22T10:51:15.701Z,6.70
2023-11-22T10:53:55.952Z,6.50
2023-11-22T10:56:24.189Z,6.40
2023-11-22T10:58:53.146Z,6.30
2023-11-22T11:01:27.377Z,6.20
2023-11-22T11:03:54.212Z,6.10
2023-11-22T11:06:28.695Z,5.90
2023-11-22T11:09:00.419Z,5.70
2023-11-22T11:11:29.529Z,5.50
2023-11-22T11:13:56.829Z,5.50
2023-11-22T11:16:25.211Z,5.40
2023-11-22T11:18:52.533Z,5.40
2023-11-22T11:21:20.512Z,5.30
2023-11-22T11:23:47.524Z,5.20
2023-11-22T11:26:23.974Z,5.20
2023-11-22T11:28:53.143Z,5.20
2023-11-22T11:31:23.890Z,5.20
2023-11-22T11:33:54.519Z,5.10
2023-11-22T11:36:29.991Z,5.10
2023-11-22T11:38:59.719Z,5.10
2023-11-22T11:41:40.623Z,5.00
2023-11-22T11:44:12.919Z,5.00
2023-11-22T11:46:41.120Z,5.00
2023-11-22T11:49:09.777Z,4.90
2023-11-22T11:51:38.829Z,4.90
2023-11-22T11:54:06.716Z,4.90
2023-11-22T11:56:35.148Z,4.80
2023-11-22T11:59:03.066Z,4.80
2023-11-22T12:01:34.313Z,4.70
2023-11-22T12:04:05.199Z,4.70
2023-11-22T12:06:34.741Z,4.60
2023-11-22T12:09:02.607Z,4.60
2023-11-22T12:11:31.406Z,4.50
2023-11-22T12:14:00.379Z,4.40
2023-11-22T12:16:28.300Z,4.40
2023-11-22T12:18:56.003Z,4.40
2023-11-22T12:21:23.224Z,4.40
2023-11-22T12:23:50.587Z,4.30
2023-11-22T12:26:20.914Z,4.40
2023-11-22T12:28:57.572Z,4.40
2023-11-22T12:31:36.159Z,4.40
2023-11-22T12:34:05.289Z,4.40
2023-11-22T12:36:32.452Z,4.50
2023-11-22T12:39:00.210Z,4.50
2023-11-22T12:41:31.947Z,4.50
2023-11-22T12:44:09.429Z,4.50
2023-11-22T12:46:51.278Z,4.50
2023-11-22T12:49:20.070Z,4.40
2023-11-22T12:51:48.898Z,4.40
2023-11-22T12:54:16.140Z,4.30
2023-11-22T12:56:43.407Z,4.30
2023-11-22T12:59:11.533Z,4.30
2023-11-22T13:01:38.493Z,4.40
2023-11-22T13:04:07.016Z,4.40
2023-11-22T13:06:34.479Z,4.40
2023-11-22T13:09:01.457Z,4.40
2023-11-22T13:11:28.454Z,4.30
2023-11-22T13:13:55.384Z,4.20
2023-11-22T13:16:22.717Z,4.20
2023-11-22T13:18:49.874Z,4.20
2023-11-22T13:21:16.976Z,4.20
2023-11-22T13:23:43.774Z,4.30
2023-11-22T13:26:14.127Z,4.40
2023-11-22T13:28:42.318Z,4.40
2023-11-22T13:31:09.872Z,4.40
2023-11-22T13:33:37.807Z,4.30
2023-11-22T13:36:06.653Z,4.30
2023-11-22T13:38:33.427Z,4.30
2023-11-22T13:41:00.414Z,4.30
2023-11-22T13:43:27.163Z,4.40
2023-11-22T13:45:54.148Z,4.40
2023-11-22T13:48:24.668Z,4.40
2023-11-22T13:50:51.581Z,4.50
2023-11-22T13:53:22.746Z,4.40
2023-11-22T13:55:52.429Z,4.40
2023-11-22T13:58:19.398Z,4.30
2023-11-22T14:00:49.006Z,4.30
2023-11-22T14:03:15.989Z,4.20
2023-11-22T14:05:44.095Z,4.20
2023-11-22T14:08:11.002Z,4.20
2023-11-22T14:10:37.853Z,4.20
2023-11-22T14:13:06.091Z,4.10
2023-11-22T14:15:33.607Z,4.10
2023-11-22T14:18:00.697Z,4.10
2023-11-22T14:20:28.148Z,4.10
2023-11-22T14:22:55.193Z,4.10
2023-11-22T14:25:22.491Z,4.10
2023-11-22T14:27:54.353Z,4.10
2023-11-22T14:30:22.523Z,4.00
2023-11-22T14:32:50.245Z,4.00
2023-11-22T14:35:18.834Z,4.00
2023-11-22T14:37:45.903Z,3.90
2023-11-22T14:40:15.623Z,3.90
2023-11-22T14:42:44.086Z,3.80
2023-11-22T14:45:12.582Z,3.80
2023-11-22T14:47:41.295Z,3.70
2023-11-22T14:50:12.637Z,3.50
2023-11-22T14:52:40.040Z,3.50
2023-11-22T14:55:07.161Z,3.50
2023-11-22T14:57:34.156Z,3.40
2023-11-22T15:00:00.977Z,3.40
2023-11-22T15:02:27.985Z,3.30
2023-11-22T15:04:54.945Z,3.30
2023-11-22T15:07:23.100Z,3.30
2023-11-22T15:09:49.940Z,3.30
2023-11-22T15:12:16.779Z,3.20
2023-11-22T15:14:43.689Z,3.20
2023-11-22T15:17:10.554Z,3.20
2023-11-22T15:19:39.167Z,3.10
2023-11-22T15:22:08.028Z,3.10
2023-11-22T15:24:35.306Z,3.10
2023-11-22T15:27:02.096Z,3.10
2023-11-22T15:29:29.197Z,3.10
2023-11-22T15:31:56.170Z,3.00
2023-11-22T15:34:22.952Z,3.00
2023-11-22T15:36:49.874Z,3.00
2023-11-22T15:39:18.874Z,3.00
2023-11-22T15:41:45.802Z,3.00
2023-11-22T15:44:14.226Z,3.00
2023-11-22T15:46:44.596Z,3.00
2023-11-22T15:49:11.646Z,2.90
2023-11-22T15:51:38.429Z,2.90
2023-11-22T15:54:05.615Z,2.90
2023-11-22T15:56:33.098Z,2.90
2023-11-22T15:59:00.625Z,3.00
2023-11-22T16:01:28.514Z,3.00
2023-11-22T16:03:55.825Z,2.90
2023-11-22T16:06:24.099Z,2.90
2023-11-22T16:08:51.204Z,3.00
2023-11-22T16:11:18.287Z,3.00
2023-11-22T16:13:46.103Z,3.00
2023-11-22T16:16:13.282Z,2.90
2023-11-22T16:18:41.719Z,2.90
2023-11-22T16:21:09.018Z,2.90
2023-11-22T16:23:36.452Z,3.00
2023-11-22T16:26:05.770Z,3.00
2023-11-22T16:28:33.673Z,2.90
2023-11-22T16:31:01.115Z,2.90
2023-11-22T16:33:28.546Z,2.90
2023-11-22T16:35:56.527Z,3.00
2023-11-22T16:38:24.439Z,3.00
2023-11-22T16:40:53.843Z,3.10
2023-11-22T16:43:21.848Z,3.10
2023-11-22T16:45:53.011Z,3.10
2023-11-22T16:48:20.371Z,3.10
2023-11-22T16:50:47.404Z,3.10
2023-11-22T16:53:16.870Z,3.10
2023-11-22T16:55:46.739Z,3.10
2023-11-22T16:58:14.221Z,3.10
2023-11-22T17:00:41.438Z,3.10
2023-11-22T17:03:08.384Z,3.10
2023-11-22T17:05:35.344Z,3.10
2023-11-22T17:08:04.935Z,3.10
2023-11-22T17:10:45.608Z,3.20
2023-11-22T17:13:15.033Z,3.20
2023-11-22T17:15:44.624Z,3.20
2023-11-22T17:18:14.941Z,3.20
2023-11-22T17:20:43.083Z,3.10
2023-11-22T17:23:13.025Z,3.10
2023-11-22T17:25:40.272Z,3.10
2023-11-22T17:28:07.509Z,3.00
2023-11-22T17:30:37.064Z,3.00
2023-11-22T17:33:04.206Z,3.10
2023-11-22T17:35:31.581Z,3.10
2023-11-22T17:38:01.576Z,3.10
2023-11-22T17:40:30.303Z,3.10
2023-11-22T17:43:00.255Z,3.20
2023-11-22T17:45:28.538Z,3.20
2023-11-22T17:47:55.410Z,3.10
2023-11-22T17:50:22.413Z,3.10
2023-11-22T17:52:49.354Z,3.00
2023-11-22T17:55:24.837Z,3.00
2023-11-22T17:57:51.694Z,3.00
2023-11-22T18:00:18.878Z,3.00
2023-11-22T18:02:45.756Z,3.10
2023-11-22T18:05:12.640Z,3.10
2023-11-22T18:07:39.584Z,3.10
2023-11-22T18:10:06.744Z,3.10
2023-11-22T18:12:33.735Z,3.10
2023-11-22T18:15:00.632Z,3.20
2023-11-22T18:17:27.737Z,3.10
2023-11-22T18:19:55.081Z,3.10
2023-11-22T18:22:22.078Z,3.10
2023-11-22T18:24:48.937Z,3.20
2023-11-22T18:27:16.035Z,3.20
2023-11-22T18:29:42.818Z,3.20
2023-11-22T18:32:10.230Z,3.10
2023-11-22T18:34:37.836Z,3.10
2023-11-22T18:37:06.638Z,3.00
2023-11-22T18:39:34.248Z,3.00
2023-11-22T18:42:01.275Z,2.90
2023-11-22T18:44:30.469Z,2.90
2023-11-22T18:46:58.427Z,2.90
2023-11-22T18:49:27.045Z,2.90
2023-11-22T18:51:53.880Z,2.90
2023-11-22T18:54:22.288Z,2.90
2023-11-22T18:56:49.491Z,2.90
2023-11-22T18:59:16.329Z,2.80
2023-11-22T19:01:43.480Z,2.80
2023-11-22T19:04:10.529Z,2.90
2023-11-22T19:06:37.684Z,2.80
2023-11-22T19:09:12.149Z,2.80
2023-11-22T19:11:40.421Z,2.70
2023-11-22T19:14:07.404Z,2.60
2023-11-22T19:16:42.127Z,2.60
2023-11-22T19:19:09.079Z,2.50
2023-11-22T19:21:35.882Z,2.40
2023-11-22T19:24:03.032Z,2.40
2023-11-22T19:26:34.903Z,2.40
2023-11-22T19:29:02.100Z,2.30
2023-11-22T19:31:29.147Z,2.30
2023-11-22T19:33:56.427Z,2.30
2023-11-22T19:36:24.613Z,2.30
2023-11-22T19:38:53.580Z,2.30
2023-11-22T19:41:25.105Z,2.30
2023-11-22T19:43:52.591Z,2.30
2023-11-22T19:46:19.637Z,2.30
2023-11-22T19:48:46.740Z,2.30
2023-11-22T19:51:14.204Z,2.40
2023-11-22T19:53:45.157Z,2.40
2023-11-22T19:56:12.320Z,2.40
2023-11-22T19:58:39.251Z,2.40
2023-11-22T20:01:09.041Z,2.40
2023-11-22T20:03:36.221Z,2.30
2023-11-22T20:06:03.311Z,2.40
2023-11-22T20:08:30.453Z,2.40
2023-11-22T20:10:57.360Z,2.40
2023-11-22T20:13:24.216Z,2.30
2023-11-22T20:15:52.262Z,2.30
2023-11-22T20:18:19.933Z,2.20
2023-11-22T20:20:47.018Z,2.20
2023-11-22T20:23:17.818Z,2.30
2023-11-22T20:25:45.285Z,2.20
2023-11-22T20:28:12.660Z,2.20
2023-11-22T20:30:39.584Z,2.20
2023-11-22T20:33:06.650Z,2.20
2023-11-22T20:35:33.520Z,2.20
2023-11-22T20:38:00.451Z,2.10
2023-11-22T20:40:27.296Z,2.10
2023-11-22T20:42:55.004Z,2.00
2023-11-22T20:45:22.151Z,2.00
2023-11-22T20:47:49.814Z,2.00
2023-11-22T20:50:24.848Z,1.90
2023-11-22T20:52:52.111Z,1.90
2023-11-22T20:55:19.181Z,1.90
2023-11-22T20:57:46.147Z,1.90
2023-11-22T21:00:13.543Z,1.90
2023-11-22T21:02:41.166Z,1.90
2023-11-22T21:05:08.794Z,1.90
2023-11-22T21:07:35.668Z,1.90
2023-11-22T21:10:02.602Z,1.90
2023-11-22T21:12:29.395Z,1.80
2023-11-22T21:14:57.184Z,1.80
2023-11-22T21:17:36.235Z,1.80
2023-11-22T21:20:10.727Z,1.80
2023-11-22T21:22:39.042Z,1.80
2023-11-22T21:25:09.450Z,1.80
2023-11-22T21:27:42.984Z,1.90
2023-11-22T21:30:13.313Z,1.90
2023-11-22T21:32:41.123Z,2.00
2023-11-22T21:35:11.394Z,2.00
2023-11-22T21:37:44.099Z,2.00
2023-11-22T21:40:13.498Z,2.00
2023-11-22T21:42:46.865Z,2.00
2023-11-22T21:45:13.904Z,1.90
2023-11-22T21:47:41.423Z,1.90
2023-11-22T21:50:09.012Z,1.80
2023-11-22T21:52:36.080Z,1.80
2023-11-22T21:55:03.106Z,1.80
2023-11-22T21:57:29.920Z,1.80
2023-11-22T21:59:56.968Z,1.70
2023-11-22T22:02:24.257Z,1.70
2023-11-22T22:04:51.100Z,1.70
2023-11-22T22:07:17.943Z,1.70
2023-11-22T22:09:44.879Z,1.70
2023-11-22T22:12:12.494Z,1.70
2023-11-22T22:14:39.413Z,1.70
2023-11-22T22:17:06.495Z,1.60
2023-11-22T22:19:33.295Z,1.60
2023-11-22T22:22:00.397Z,1.70
2023-11-22T22:24:33.930Z,1.70
2023-11-22T22:27:00.964Z,1.60
2023-11-22T22:29:31.567Z,1.70
2023-11-22T22:31:58.320Z,1.70
2023-11-22T22:34:25.098Z,1.70
2023-11-22T22:36:52.603Z,1.70
2023-11-22T22:39:19.394Z,1.70
2023-11-22T22:41:46.266Z,1.70
2023-11-22T22:44:13.308Z,1.70
2023-11-22T22:46:41.975Z,1.70
2023-11-22T22:49:09.630Z,1.70
2023-11-22T22:51:36.792Z,1.70
2023-11-22T22:54:04.223Z,1.60
2023-11-22T22:56:31.559Z,1.60
2023-11-22T22:58:58.383Z,1.60
2023-11-22T23:01:25.306Z,1.70
2023-11-22T23:03:52.179Z,1.70
2023-11-22T23:06:23.527Z,1.70
2023-11-22T23:08:53.330Z,1.80
2023-11-22T23:11:21.515Z,1.80
2023-11-22T23:13:48.985Z,1.80
2023-11-22T23:16:16.210Z,1.70
2023-11-22T23:18:43.468Z,1.70
2023-11-22T23:21:11.516Z,1.70
2023-11-22T23:23:38.647Z,1.70
2023-11-22T23:26:06.039Z,1.70
2023-11-22T23:28:33.365Z,1.80
2023-11-22T23:31:00.792Z,1.80
2023-11-22T23:33:27.809Z,1.90
2023-11-22T23:35:54.897Z,1.90
2023-11-22T23:38:22.419Z,2.00
2023-11-22T23:40:50.401Z,2.00
2023-11-22T23:43:17.979Z,2.10
2023-11-22T23:45:45.072Z,2.10
2023-11-22T23:48:14.176Z,2.10
2023-11-22T23:50:41.650Z,2.10
2023-11-22T23:53:08.463Z,2.20
2023-11-22T23:55:35.277Z,2.20
2023-11-22T23:58:02.136Z,2.20
